Time;durP1;ratioP1;P1;durP2;ratioP2;P2;SDS_P1;SDS_P2;PMS_P1;PMS_P2;Temp;Humidity;BMP_temperature;BMP_pressure;BME280_temperature;BME280_humidity;BME280_pressure;Samples;Min_cycle;Max_cycle;Signal;HPM_P1;HPM_P2
2022/06/22 00:01:17;;;;;;;4.47;0.95;;;15.40;96.90;;;;;;5042303;28;45162;-67
2022/06/22 00:03:50;;;;;;;3.88;1.60;;;15.60;95.40;;;;;;5039948;28;45515;-67
2022/06/22 00:06:27;;;;;;;5.28;1.23;;;15.80;94.60;;;;;;5043848;28;45209;-67
2022/06/22 00:08:54;;;;;;;6.32;1.30;;;15.90;93.80;;;;;;5039402;28;45895;-67
2022/06/22 00:11:23;;;;;;;6.07;1.15;;;16.00;93.30;;;;;;5036584;28;45233;-67
2022/06/22 00:13:53;;;;;;;8.77;1.20;;;16.00;93.20;;;;;;5039641;28;45683;-66
2022/06/22 00:16:25;;;;;;;7.43;1.63;;;16.10;93.00;;;;;;5038297;28;45749;-67
2022/06/22 00:18:54;;;;;;;4.88;1.40;;;16.10;93.30;;;;;;5040839;28;47352;-67
2022/06/22 00:21:26;;;;;;;3.00;1.25;;;16.00;94.20;;;;;;5038915;28;45243;-67
2022/06/22 00:23:55;;;;;;;5.70;1.20;;;15.70;95.10;;;;;;5035847;28;45384;-67
2022/06/22 00:26:36;;;;;;;6.57;1.60;;;15.40;96.10;;;;;;5043535;28;45354;-67
2022/06/22 00:29:23;;;;;;;8.38;1.88;;;15.10;97.30;;;;;;5039818;28;47943;-67
2022/06/22 00:32:03;;;;;;;4.47;1.40;;;14.80;99.20;;;;;;5043453;28;45337;-67
2022/06/22 00:34:32;;;;;;;7.05;1.20;;;14.60;99.90;;;;;;5039842;28;45459;-67
2022/06/22 00:37:01;;;;;;;3.70;1.50;;;14.40;99.90;;;;;;5039664;28;45334;-66
2022/06/22 00:39:39;;;;;;;3.85;1.48;;;14.20;99.90;;;;;;5035297;28;47099;-66
2022/06/22 00:42:26;;;;;;;6.60;1.60;;;14.20;99.90;;;;;;5044359;28;45313;-67
2022/06/22 00:45:04;;;;;;;4.72;1.27;;;14.10;99.90;;;;;;5037957;28;45170;-66
2022/06/22 00:47:34;;;;;;;3.35;1.30;;;14.20;99.90;;;;;;5033124;28;45486;-66
2022/06/22 00:50:06;;;;;;;6.15;1.50;;;14.10;99.90;;;;;;5039233;28;47703;-66
2022/06/22 00:52:38;;;;;;;7.55;1.73;;;14.00;99.90;;;;;;5044294;28;45559;-66
2022/06/22 00:55:17;;;;;;;5.35;1.42;;;14.00;99.90;;;;;;5043125;28;45280;-66
2022/06/22 00:57:50;;;;;;;2.75;1.30;;;14.00;99.90;;;;;;5038539;28;45471;-66
2022/06/22 01:00:21;;;;;;;3.78;1.60;;;13.90;99.90;;;;;;5042042;28;45300;-66
2022/06/22 01:02:53;;;;;;;5.50;2.17;;;14.00;99.90;;;;;;5040008;28;45353;-66
2022/06/22 01:05:25;;;;;;;3.03;1.60;;;14.20;99.90;;;;;;5043208;28;45459;-66
2022/06/22 01:08:02;;;;;;;5.10;1.95;;;14.40;99.90;;;;;;5050169;28;45133;-66
2022/06/22 01:10:36;;;;;;;4.78;2.08;;;14.40;99.90;;;;;;5040542;28;48148;-66
2022/06/22 01:13:11;;;;;;;5.45;1.60;;;14.50;99.90;;;;;;5044249;28;45656;-66
2022/06/22 01:15:42;;;;;;;13.25;1.92;;;14.50;99.90;;;;;;5043034;28;45308;-66
2022/06/22 01:18:13;;;;;;;5.40;2.00;;;14.70;99.90;;;;;;5042924;28;45289;-66
2022/06/22 01:20:56;;;;;;;5.32;1.65;;;14.50;99.90;;;;;;5042058;28;45216;-66
2022/06/22 01:23:41;;;;;;;8.02;1.67;;;14.30;99.90;;;;;;5042624;28;45285;-66
2022/06/22 01:26:28;;;;;;;4.85;1.73;;;14.40;99.90;;;;;;5044901;28;45168;-66
2022/06/22 01:29:02;;;;;;;4.55;2.00;;;14.60;99.90;;;;;;5041744;28;45172;-66
2022/06/22 01:31:30;;;;;;;4.78;1.77;;;14.50;99.90;;;;;;5053484;28;48119;-66
2022/06/22 01:33:57;;;;;;;7.97;2.15;;;14.60;99.90;;;;;;5040713;28;45229;-66
2022/06/22 01:36:26;;;;;;;6.70;1.67;;;14.80;99.90;;;;;;5048562;28;45336;-66
2022/06/22 01:38:53;;;;;;;5.47;1.92;;;14.80;99.90;;;;;;5051864;28;45391;-66
2022/06/22 01:41:30;;;;;;;9.63;2.00;;;15.00;99.20;;;;;;5041855;28;47435;-66
2022/06/22 01:44:04;;;;;;;5.22;1.77;;;15.10;98.70;;;;;;5045162;28;45328;-66
2022/06/22 01:46:42;;;;;;;6.88;2.38;;;15.10;98.90;;;;;;5043470;28;45316;-66
2022/06/22 01:49:15;;;;;;;5.55;2.10;;;15.10;99.20;;;;;;5043696;28;45356;-66
2022/06/22 01:51:47;;;;;;;8.25;2.03;;;14.90;99.90;;;;;;5041166;28;45544;-66
2022/06/22 01:54:21;;;;;;;6.13;1.88;;;14.70;99.90;;;;;;5049527;28;45444;-66
2022/06/22 01:56:52;;;;;;;7.13;2.15;;;14.70;99.90;;;;;;5046709;28;45256;-66
2022/06/22 01:59:28;;;;;;;4.97;1.83;;;14.30;99.90;;;;;;5038961;28;45375;-66
2022/06/22 02:02:00;;;;;;;4.85;2.13;;;14.00;99.90;;;;;;5045385;28;45279;-66
2022/06/22 02:04:35;;;;;;;8.93;2.13;;;13.90;99.90;;;;;;5047391;28;45189;-66
2022/06/22 02:10:12;;;;;;;6.45;2.03;;;13.60;99.90;;;;;;5046517;28;45540;-66
2022/06/22 02:12:46;;;;;;;5.93;2.15;;;13.40;99.90;;;;;;5055982;28;47122;-65
2022/06/22 02:15:22;;;;;;;4.47;1.92;;;13.30;99.90;;;;;;5041186;28;45383;-65
2022/06/22 02:17:50;;;;;;;3.80;2.00;;;13.20;99.90;;;;;;5050453;28;45212;-65
2022/06/22 02:20:36;;;;;;;6.03;2.20;;;13.10;99.90;;;;;;5040175;28;45363;-65
2022/06/22 02:23:12;;;;;;;6.65;2.10;;;13.10;99.90;;;;;;5035913;28;46263;-65
2022/06/22 02:25:44;;;;;;;7.40;2.22;;;13.10;99.90;;;;;;5045298;28;45151;-65
2022/06/22 02:28:11;;;;;;;8.32;2.63;;;13.00;99.90;;;;;;5042672;28;45438;-65
2022/06/22 02:30:39;;;;;;;9.38;2.30;;;12.90;99.90;;;;;;5048526;28;45577;-65
2022/06/22 02:33:08;;;;;;;5.45;2.05;;;13.10;99.90;;;;;;5058929;28;47778;-65
2022/06/22 02:35:38;;;;;;;7.97;2.72;;;13.30;99.90;;;;;;5038065;28;45581;-65
2022/06/22 02:38:08;;;;;;;5.78;2.70;;;13.50;99.90;;;;;;5055290;28;45490;-65
2022/06/22 02:46:15;;;;;;;7.68;2.72;;;14.00;99.90;;;;;;5047051;28;45566;-65
2022/06/22 02:48:44;;;;;;;6.82;2.53;;;14.20;99.90;;;;;;5042743;28;45344;-65
2022/06/22 02:51:17;;;;;;;8.77;2.67;;;14.20;99.90;;;;;;5038359;28;45527;-65
2022/06/22 02:53:45;;;;;;;13.82;2.60;;;14.20;99.90;;;;;;5042836;28;46186;-65
2022/06/22 02:56:16;;;;;;;7.72;2.47;;;14.20;99.90;;;;;;5051141;28;45617;-65
2022/06/22 02:58:44;;;;;;;4.20;2.47;;;14.20;99.90;;;;;;5041983;28;45401;-65
2022/06/22 03:01:15;;;;;;;6.15;1.92;;;14.20;99.90;;;;;;5040526;28;45538;-65
2022/06/22 03:03:46;;;;;;;7.13;2.72;;;14.10;99.90;;;;;;5041647;28;46194;-65
2022/06/22 03:06:14;;;;;;;7.15;2.63;;;14.20;99.90;;;;;;5051389;28;45339;-65
2022/06/22 03:08:41;;;;;;;9.75;2.80;;;14.10;99.90;;;;;;5048342;28;45200;-65
2022/06/22 03:11:10;;;;;;;7.05;2.30;;;14.10;99.90;;;;;;5039985;28;45358;-65
2022/06/22 03:13:44;;;;;;;11.80;2.85;;;14.20;99.90;;;;;;5043789;28;45994;-65
2022/06/22 03:16:28;;;;;;;6.25;2.90;;;14.00;99.90;;;;;;5045337;28;46921;-65
2022/06/22 03:18:58;;;;;;;8.85;2.85;;;14.00;99.90;;;;;;5044884;28;45484;-65
2022/06/22 03:21:25;;;;;;;6.28;2.63;;;13.90;99.90;;;;;;5040136;28;45255;-65
2022/06/22 03:24:00;;;;;;;8.50;3.00;;;13.90;99.90;;;;;;5036839;28;45239;-65
2022/06/22 03:26:30;;;;;;;7.10;2.65;;;13.90;99.90;;;;;;5042832;28;45193;-65
2022/06/22 03:29:04;;;;;;;7.63;2.83;;;13.90;99.90;;;;;;5045008;28;45806;-65
2022/06/22 03:31:38;;;;;;;19.50;2.78;;;13.90;99.90;;;;;;5040442;28;45139;-65
2022/06/22 03:34:10;;;;;;;7.60;3.10;;;13.80;99.90;;;;;;5041893;28;46178;-65
2022/06/22 03:36:42;;;;;;;8.95;2.60;;;13.80;99.90;;;;;;5040283;28;45205;-65
2022/06/22 03:39:15;;;;;;;7.60;2.75;;;13.80;99.90;;;;;;5041792;28;45272;-65
2022/06/22 03:41:47;;;;;;;11.05;2.97;;;13.70;99.90;;;;;;5040858;28;45683;-65
2022/06/22 03:44:18;;;;;;;12.23;2.90;;;13.60;99.90;;;;;;5041183;28;45501;-65
2022/06/22 03:46:48;;;;;;;14.35;3.30;;;13.60;99.90;;;;;;5043347;28;45294;-65
2022/06/22 03:49:21;;;;;;;7.60;2.92;;;13.70;99.90;;;;;;5039424;28;45509;-66
2022/06/22 03:51:52;;;;;;;7.60;2.83;;;13.70;99.90;;;;;;5040756;28;45287;-65
2022/06/22 03:54:26;;;;;;;10.25;2.60;;;13.80;99.90;;;;;;5044244;28;45165;-65
2022/06/22 03:56:57;;;;;;;4.70;2.65;;;13.80;99.90;;;;;;5042012;28;45300;-65
2022/06/22 03:59:24;;;;;;;7.18;3.20;;;13.90;99.90;;;;;;5044137;28;45187;-65
2022/06/22 04:01:54;;;;;;;6.35;2.85;;;13.90;99.90;;;;;;5040606;28;45383;-65
2022/06/22 04:04:23;;;;;;;10.00;3.08;;;13.90;99.90;;;;;;5035708;28;45195;-65
2022/06/22 04:06:54;;;;;;;8.23;3.00;;;13.80;99.90;;;;;;5046744;28;45267;-65
2022/06/22 04:09:23;;;;;;;7.70;2.83;;;13.50;99.90;;;;;;5039998;28;45181;-65
2022/06/22 04:11:55;;;;;;;7.20;3.00;;;13.40;99.90;;;;;;5043808;28;45459;-65
2022/06/22 04:14:28;;;;;;;5.63;2.83;;;13.10;99.90;;;;;;5046400;28;46311;-65
2022/06/22 04:17:01;;;;;;;19.40;3.05;;;13.10;99.90;;;;;;5234560;22;45304;-64
2022/06/22 04:19:32;;;;;;;13.82;3.30;;;13.30;99.90;;;;;;5041013;28;45460;-64
2022/06/22 04:22:03;;;;;;;12.80;2.95;;;13.50;99.90;;;;;;5044792;28;45337;-64
2022/06/22 04:24:34;;;;;;;10.70;3.28;;;13.80;99.90;;;;;;5038696;28;46086;-65
2022/06/22 04:27:07;;;;;;;9.45;3.35;;;13.80;99.90;;;;;;5039072;28;45208;-65
2022/06/22 04:29:39;;;;;;;10.85;3.05;;;14.10;99.90;;;;;;5045013;28;45251;-65
2022/06/22 04:32:16;;;;;;;8.63;3.03;;;14.10;99.90;;;;;;5049179;28;45327;-65
2022/06/22 04:34:47;;;;;;;8.60;3.47;;;14.10;99.90;;;;;;5040926;28;45350;-65
2022/06/22 04:37:28;;;;;;;8.98;3.10;;;14.20;99.90;;;;;;5039551;28;46005;-65
2022/06/22 04:40:12;;;;;;;7.60;3.45;;;14.10;99.90;;;;;;5039308;28;45467;-65
2022/06/22 04:42:39;;;;;;;10.63;3.45;;;14.30;99.90;;;;;;5041408;28;45733;-65
2022/06/22 04:45:07;;;;;;;10.93;2.85;;;14.40;99.90;;;;;;5045412;28;46530;-65
2022/06/22 04:47:36;;;;;;;10.13;3.20;;;14.30;99.90;;;;;;5041088;28;45576;-65
2022/06/22 04:50:06;;;;;;;8.52;3.30;;;14.20;99.90;;;;;;5044676;28;45327;-65
2022/06/22 04:52:41;;;;;;;8.20;3.00;;;13.90;99.90;;;;;;5043869;28;45170;-65
2022/06/22 04:55:15;;;;;;;8.40;3.50;;;13.90;99.90;;;;;;5049860;28;48544;-65
2022/06/22 04:57:45;;;;;;;7.20;3.28;;;13.90;99.90;;;;;;5039616;28;45312;-65
2022/06/22 05:00:16;;;;;;;8.35;3.38;;;13.90;99.90;;;;;;5038631;28;45290;-65
2022/06/22 05:02:46;;;;;;;8.82;3.28;;;14.10;99.90;;;;;;5041441;28;45307;-65
2022/06/22 05:05:22;;;;;;;9.02;2.95;;;14.30;99.90;;;;;;5049266;28;45337;-65
2022/06/22 05:07:53;;;;;;;8.57;3.53;;;14.50;99.90;;;;;;5054318;28;45245;-65
2022/06/22 05:10:28;;;;;;;8.82;2.90;;;14.50;99.90;;;;;;5046377;28;45339;-65
2022/06/22 05:13:02;;;;;;;10.77;3.20;;;14.70;99.90;;;;;;5040572;28;45472;-65
2022/06/22 05:15:33;;;;;;;9.98;3.65;;;14.20;99.90;;;;;;5045251;28;47079;-65
2022/06/22 05:18:04;;;;;;;9.80;3.45;;;14.10;99.90;;;;;;5047875;28;45239;-65
2022/06/22 05:20:39;;;;;;;7.50;3.08;;;14.30;99.90;;;;;;5049485;28;45196;-65
2022/06/22 05:23:08;;;;;;;14.88;4.30;;;14.60;99.90;;;;;;5045299;28;45316;-65
2022/06/22 05:25:36;;;;;;;8.63;3.28;;;14.80;99.90;;;;;;5039611;28;46310;-65
2022/06/22 05:28:07;;;;;;;11.52;3.72;;;14.80;99.90;;;;;;5039751;28;45138;-65
2022/06/22 05:30:39;;;;;;;11.43;3.60;;;14.80;99.90;;;;;;5041027;28;45392;-65
2022/06/22 05:33:10;;;;;;;8.75;3.00;;;14.90;99.90;;;;;;5058433;28;45153;-65
2022/06/22 05:35:41;;;;;;;7.45;3.17;;;14.90;99.90;;;;;;5052882;28;46493;-65
2022/06/22 05:38:10;;;;;;;8.52;3.72;;;14.90;99.90;;;;;;5040149;28;45157;-65
2022/06/22 05:40:38;;;;;;;16.35;3.88;;;15.10;99.90;;;;;;5041161;28;46278;-65
2022/06/22 05:43:06;;;;;;;11.75;3.97;;;15.20;99.90;;;;;;5046345;28;46391;-66
2022/06/22 05:45:38;;;;;;;13.05;3.72;;;15.40;99.90;;;;;;5044478;28;47106;-65
2022/06/22 05:48:12;;;;;;;12.95;3.78;;;15.50;99.90;;;;;;5042561;28;45615;-66
2022/06/22 05:50:42;;;;;;;7.72;3.63;;;15.60;99.90;;;;;;5038972;28;45337;-66
2022/06/22 05:53:16;;;;;;;7.57;3.38;;;15.60;99.90;;;;;;5046421;28;45343;-66
2022/06/22 05:55:49;;;;;;;11.45;3.90;;;15.70;99.90;;;;;;5044458;28;46411;-67
2022/06/22 05:58:24;;;;;;;13.65;3.78;;;15.70;99.90;;;;;;5048937;28;45308;-67
2022/06/22 06:00:53;;;;;;;10.13;3.60;;;15.90;99.90;;;;;;5042923;28;45157;-66
2022/06/22 06:03:33;;;;;;;9.68;3.42;;;16.00;99.90;;;;;;5040030;28;45195;-66
2022/06/22 06:06:08;;;;;;;12.70;3.50;;;16.00;99.90;;;;;;5050431;28;45180;-66
2022/06/22 06:08:43;;;;;;;8.50;3.67;;;16.20;99.90;;;;;;5040934;28;45390;-66
2022/06/22 06:11:17;;;;;;;8.93;2.83;;;16.20;99.90;;;;;;5045032;28;45601;-67
2022/06/22 06:13:47;;;;;;;10.60;3.80;;;16.40;99.90;;;;;;5042561;28;45430;-67
2022/06/22 06:16:18;;;;;;;9.75;3.67;;;16.40;99.90;;;;;;5041846;28;45375;-67
2022/06/22 06:18:47;;;;;;;7.97;3.40;;;16.60;99.90;;;;;;5051114;28;45146;-67
2022/06/22 06:21:18;;;;;;;9.23;3.63;;;16.70;99.90;;;;;;5037771;28;45310;-67
2022/06/22 06:23:51;;;;;;;12.25;3.45;;;16.70;99.90;;;;;;5041487;28;45255;-66
2022/06/22 06:29:22;;;;;;;10.48;3.97;;;16.90;99.90;;;;;;5044255;28;45164;-67
2022/06/22 06:32:02;;;;;;;10.25;3.30;;;17.00;99.90;;;;;;5049539;28;45370;-68
2022/06/22 06:34:36;;;;;;;12.75;3.58;;;17.20;99.90;;;;;;5045190;28;45349;-68
2022/06/22 06:37:08;;;;;;;11.18;3.35;;;17.10;99.90;;;;;;5041718;28;47440;-67
2022/06/22 06:39:39;;;;;;;9.40;3.33;;;17.20;99.90;;;;;;5049486;28;45450;-67
2022/06/22 06:42:24;;;;;;;8.00;3.10;;;17.30;99.70;;;;;;5051418;28;45331;-67
2022/06/22 06:44:51;;;;;;;10.77;3.70;;;17.50;98.90;;;;;;5046755;28;45628;-68
2022/06/22 06:47:26;;;;;;;7.97;3.20;;;17.60;98.40;;;;;;5042755;28;46509;-68
2022/06/22 06:50:01;;;;;;;12.23;3.60;;;17.70;98.20;;;;;;5036507;28;45355;-68
2022/06/22 06:52:35;;;;;;;11.80;3.47;;;17.60;97.50;;;;;;5040055;28;45399;-68
2022/06/22 06:55:07;;;;;;;10.93;3.13;;;17.70;97.80;;;;;;5041915;28;45489;-68
2022/06/22 06:57:36;;;;;;;11.05;4.68;;;17.70;97.70;;;;;;5053125;28;46224;-68
2022/06/22 07:00:07;;;;;;;8.43;3.40;;;17.60;97.50;;;;;;5053578;28;45364;-67
2022/06/22 07:02:37;;;;;;;15.23;4.18;;;17.70;96.70;;;;;;5036230;28;45210;-67
2022/06/22 07:05:08;;;;;;;9.88;3.35;;;17.80;96.40;;;;;;5047020;28;45205;-67
2022/06/22 07:07:41;;;;;;;7.88;2.88;;;17.80;96.60;;;;;;5048502;28;45283;-68
2022/06/22 07:10:14;;;;;;;12.85;3.00;;;17.90;96.60;;;;;;5046599;28;45181;-68
2022/06/22 07:12:46;;;;;;;8.82;2.72;;;17.90;96.50;;;;;;5042856;28;45251;-67
2022/06/22 07:15:18;;;;;;;20.83;3.30;;;18.20;95.70;;;;;;5047304;28;45347;-68
2022/06/22 07:17:48;;;;;;;9.85;3.00;;;18.30;95.10;;;;;;5046499;28;45486;-68
2022/06/22 07:20:20;;;;;;;11.50;3.40;;;18.20;95.70;;;;;;5046660;28;45641;-68
2022/06/22 07:22:52;;;;;;;9.13;2.97;;;18.20;95.40;;;;;;5037709;28;45216;-68
2022/06/22 07:25:25;;;;;;;8.88;2.72;;;18.40;95.10;;;;;;5028625;28;45312;-68
2022/06/22 07:27:58;;;;;;;14.77;2.90;;;18.50;93.80;;;;;;5041017;28;48025;-68
2022/06/22 07:30:32;;;;;;;7.45;2.92;;;18.60;93.40;;;;;;5043047;28;45266;-68
2022/06/22 07:33:06;;;;;;;6.90;2.45;;;18.60;94.10;;;;;;5037333;28;45362;-68
2022/06/22 07:35:39;;;;;;;11.48;2.88;;;18.70;93.90;;;;;;5034253;28;45464;-68
2022/06/22 07:38:12;;;;;;;6.28;1.90;;;18.80;92.90;;;;;;5035352;28;48063;-68
2022/06/22 07:41:18;;;;;;;12.63;3.13;;;19.30;95.90;;;;;;5038787;28;45213;-68
2022/06/22 07:43:27;;;;;;;9.65;2.90;;;18.70;98.60;;;;;;5035459;28;45313;-68
2022/06/22 07:45:54;;;;;;;8.00;3.10;;;18.20;97.90;;;;;;5036015;28;45348;-68
2022/06/22 07:48:22;;;;;;;4.88;2.17;;;18.30;98.40;;;;;;5041900;28;46303;-68
2022/06/22 07:50:54;;;;;;;9.05;3.13;;;18.30;97.70;;;;;;5044112;28;45425;-68
2022/06/22 07:53:31;;;;;;;12.20;2.65;;;18.40;97.70;;;;;;5047034;28;45403;-68
2022/06/22 07:56:05;;;;;;;7.20;2.50;;;18.60;97.30;;;;;;5045238;28;45253;-68
2022/06/22 07:58:37;;;;;;;6.80;2.42;;;19.00;95.30;;;;;;5037540;28;47131;-68
2022/06/22 08:01:09;;;;;;;6.30;2.35;;;19.00;93.70;;;;;;5043534;28;45577;-68
2022/06/22 08:03:42;;;;;;;6.95;2.15;;;18.90;92.20;;;;;;5044619;28;46446;-68
2022/06/22 08:06:14;;;;;;;7.45;2.50;;;19.20;93.80;;;;;;5045237;28;45355;-67
2022/06/22 08:08:46;;;;;;;8.23;2.60;;;19.30;92.70;;;;;;5047707;28;46501;-68
2022/06/22 08:11:22;;;;;;;7.45;1.65;;;19.40;92.70;;;;;;5034344;28;45623;-67
2022/06/22 08:13:53;;;;;;;12.60;2.10;;;19.50;91.60;;;;;;5042503;28;45262;-67
2022/06/22 08:16:26;;;;;;;5.20;2.22;;;19.40;91.00;;;;;;5040018;28;45650;-68
2022/06/22 08:18:54;;;;;;;5.35;1.90;;;19.40;91.60;;;;;;5040726;28;45406;-68
2022/06/22 08:21:23;;;;;;;6.13;2.03;;;19.60;91.10;;;;;;5041814;28;45327;-67
2022/06/22 08:23:52;;;;;;;9.50;1.75;;;19.60;90.50;;;;;;5037193;28;45157;-67
2022/06/22 08:26:24;;;;;;;9.43;2.53;;;19.60;91.50;;;;;;5038661;28;45534;-67
2022/06/22 08:28:51;;;;;;;5.18;1.80;;;19.70;90.20;;;;;;5040406;28;46273;-67
2022/06/22 08:31:18;;;;;;;8.77;2.00;;;19.80;90.80;;;;;;5043781;28;45350;-67
2022/06/22 08:33:49;;;;;;;5.75;2.03;;;19.90;90.80;;;;;;5039284;28;45989;-67
2022/06/22 08:36:20;;;;;;;9.23;2.08;;;20.00;87.90;;;;;;5036370;28;45186;-67
2022/06/22 08:38:54;;;;;;;5.30;2.08;;;20.00;90.60;;;;;;5043290;28;46297;-67
2022/06/22 08:41:33;;;;;;;6.18;2.00;;;20.00;90.10;;;;;;5032318;28;46054;-67
2022/06/22 08:44:05;;;;;;;7.03;1.60;;;20.10;87.30;;;;;;5049287;28;45336;-67
2022/06/22 08:47:07;;;;;;;5.35;1.70;;;20.10;85.90;;;;;;5043699;28;45468;-67
2022/06/22 08:49:47;;;;;;;7.30;1.83;;;20.30;84.90;;;;;;5037903;28;45505;-68
2022/06/22 08:52:27;;;;;;;5.68;1.88;;;20.40;86.10;;;;;;5044309;28;45331;-68
2022/06/22 08:55:09;;;;;;;3.40;1.30;;;20.40;86.40;;;;;;5030930;28;45702;-68
2022/06/22 08:57:55;;;;;;;4.13;1.17;;;20.30;90.10;;;;;;5038844;28;46399;-68
2022/06/22 09:00:29;;;;;;;4.35;1.70;;;20.10;90.20;;;;;;5030336;28;46183;-67
2022/06/22 09:03:22;;;;;;;6.60;1.50;;;20.20;89.00;;;;;;5034297;28;46097;-68
2022/06/22 09:06:18;;;;;;;7.72;1.58;;;20.30;88.20;;;;;;5036763;28;45320;-67
2022/06/22 09:09:10;;;;;;;3.85;1.58;;;20.20;89.70;;;;;;5038042;28;45320;-67
2022/06/22 09:11:45;;;;;;;7.18;1.92;;;20.30;88.70;;;;;;5037355;28;47321;-67
2022/06/22 09:14:51;;;;;;;4.53;1.40;;;20.70;86.20;;;;;;5039084;28;45289;-68
2022/06/22 09:17:49;;;;;;;4.80;1.67;;;20.50;83.10;;;;;;4976030;28;45622;-68
2022/06/22 09:20:50;;;;;;;5.45;1.70;;;20.60;83.50;;;;;;5012016;28;45481;-67
2022/06/22 09:23:29;;;;;;;6.00;1.77;;;20.70;81.80;;;;;;4995269;28;45562;-67
2022/06/22 09:26:09;;;;;;;4.32;1.58;;;20.90;80.80;;;;;;5038588;28;45312;-67
2022/06/22 09:28:46;;;;;;;4.78;1.88;;;20.90;81.10;;;;;;5040285;28;46387;-67
2022/06/22 09:31:35;;;;;;;6.25;1.92;;;20.80;81.70;;;;;;5033392;28;45288;-67
2022/06/22 09:34:14;;;;;;;6.50;1.85;;;20.70;83.30;;;;;;5048450;28;45367;-67
2022/06/22 09:37:09;;;;;;;2.63;1.38;;;20.80;80.70;;;;;;5043367;28;45387;-67
2022/06/22 09:39:58;;;;;;;7.40;1.50;;;20.90;87.00;;;;;;5047380;28;45557;-67
2022/06/22 09:42:52;;;;;;;4.70;1.75;;;20.70;81.20;;;;;;5039116;28;45586;-69
2022/06/22 09:45:38;;;;;;;4.75;1.80;;;21.10;81.20;;;;;;5040134;28;46201;-67
2022/06/22 09:48:38;;;;;;;7.55;1.50;;;21.10;81.60;;;;;;5044785;28;45455;-68
2022/06/22 09:51:27;;;;;;;4.30;1.90;;;20.80;80.20;;;;;;5021341;28;45303;-68
2022/06/22 09:57:31;;;;;;;4.18;1.70;;;21.30;77.10;;;;;;5042253;28;45712;-67
2022/06/22 10:00:05;;;;;;;7.43;1.70;;;21.80;74.30;;;;;;5054914;28;45188;-67
2022/06/22 10:03:06;;;;;;;5.47;1.77;;;21.70;74.00;;;;;;5056782;28;45210;-67
2022/06/22 10:05:51;;;;;;;4.93;1.48;;;21.80;72.70;;;;;;5045777;28;45476;-67
2022/06/22 10:08:43;;;;;;;6.10;1.90;;;22.00;75.00;;;;;;5049779;28;47074;-67
2022/06/22 10:11:21;;;;;;;6.22;1.50;;;21.90;72.60;;;;;;5055212;28;45312;-68
2022/06/22 10:14:18;;;;;;;3.75;1.48;;;21.60;73.60;;;;;;5057479;28;45366;-67
2022/06/22 10:16:57;;;;;;;5.78;1.70;;;21.60;73.80;;;;;;5044403;28;45456;-67
2022/06/22 10:19:37;;;;;;;11.02;1.85;;;21.80;71.60;;;;;;5059339;28;48409;-67
2022/06/22 10:22:17;;;;;;;5.13;1.92;;;22.00;72.10;;;;;;5048812;28;45384;-67
2022/06/22 10:25:03;;;;;;;5.32;1.63;;;22.40;69.10;;;;;;5043771;28;45398;-67
2022/06/22 10:27:52;;;;;;;3.72;1.40;;;22.10;71.30;;;;;;5048027;28;45098;-67
2022/06/22 10:30:24;;;;;;;1.25;1.00;;;21.60;74.40;;;;;;5049904;28;45347;-67
2022/06/22 10:33:24;;;;;;;4.50;1.30;;;21.30;78.70;;;;;;5047728;28;45175;-67
2022/06/22 10:36:23;;;;;;;7.80;1.52;;;21.40;72.80;;;;;;5003732;28;45288;-67
2022/06/22 10:39:11;;;;;;;4.80;1.38;;;21.50;72.40;;;;;;5041107;28;45277;-67
2022/06/22 10:45:09;;;;;;;2.45;1.05;;;21.90;72.20;;;;;;5050182;28;45326;-67
2022/06/22 10:48:05;;;;;;;4.15;1.30;;;21.40;76.70;;;;;;5048246;28;45380;-67
2022/06/22 10:50:38;;;;;;;11.80;1.80;;;21.10;77.60;;;;;;5053147;28;45503;-67
2022/06/22 10:53:44;;;;;;;5.32;1.27;;;21.10;74.90;;;;;;5045760;28;45491;-67
2022/06/22 10:56:24;;;;;;;4.85;2.40;;;21.60;82.90;;;;;;5034433;28;46303;-67
2022/06/22 10:59:07;;;;;;;6.40;2.63;;;21.00;80.10;;;;;;5044240;28;45474;-67
2022/06/22 11:01:46;;;;;;;6.07;2.70;;;20.90;81.50;;;;;;5045755;28;45244;-67
2022/06/22 11:04:55;;;;;;;4.78;1.80;;;20.90;82.30;;;;;;5041940;28;45562;-68
2022/06/22 11:07:53;;;;;;;3.33;1.70;;;21.00;73.30;;;;;;5040283;28;45154;-67
2022/06/22 11:10:40;;;;;;;3.83;1.70;;;21.90;75.00;;;;;;5031569;28;45470;-68
2022/06/22 11:13:51;;;;;;;6.68;2.20;;;22.30;67.30;;;;;;5040923;28;45360;-67
2022/06/22 11:16:47;;;;;;;5.47;1.45;;;23.10;63.30;;;;;;5004779;28;45526;-67
2022/06/22 11:19:38;;;;;;;4.38;1.58;;;23.00;67.00;;;;;;5040969;28;45219;-68
2022/06/22 11:22:17;;;;;;;4.25;1.20;;;22.40;71.00;;;;;;5037911;28;45407;-68
2022/06/22 11:25:12;;;;;;;5.55;1.30;;;23.00;62.80;;;;;;5038345;28;45612;-68
2022/06/22 11:30:56;;;;;;;3.85;1.45;;;22.70;63.10;;;;;;5038335;28;47571;-67
2022/06/22 11:33:52;;;;;;;2.80;1.30;;;23.00;61.50;;;;;;5048765;28;45786;-70
2022/06/22 11:36:27;;;;;;;2.65;1.10;;;22.30;69.90;;;;;;5045565;28;45225;-69
2022/06/22 11:39:17;;;;;;;7.63;1.25;;;21.90;74.70;;;;;;5047243;28;45489;-69
2022/06/22 11:42:09;;;;;;;3.03;1.30;;;21.90;69.80;;;;;;5026363;28;46814;-67
2022/06/22 11:47:49;;;;;;;3.25;1.45;;;21.80;67.80;;;;;;5031809;28;45275;-67
2022/06/22 11:50:26;;;;;;;7.20;1.55;;;22.30;68.40;;;;;;5027023;28;47951;-67
2022/06/22 11:53:08;;;;;;;2.67;1.20;;;21.50;78.10;;;;;;5052836;28;45480;-67
2022/06/22 11:55:40;;;;;;;2.90;1.30;;;21.70;74.00;;;;;;5048529;28;45225;-67
2022/06/22 11:58:29;;;;;;;3.75;1.50;;;22.40;62.40;;;;;;5044026;28;45448;-67
2022/06/22 12:01:30;;;;;;;3.17;1.00;;;22.90;61.00;;;;;;5047358;28;46207;-67
2022/06/22 12:04:39;;;;;;;6.10;1.27;;;22.40;69.10;;;;;;4998710;28;45246;-67
2022/06/22 12:07:44;;;;;;;3.40;1.23;;;22.70;59.00;;;;;;5045811;28;45247;-67
2022/06/22 12:10:29;;;;;;;3.78;1.27;;;23.10;66.90;;;;;;5046719;28;46044;-68
2022/06/22 12:13:09;;;;;;;4.82;1.30;;;22.40;62.30;;;;;;5043258;28;46165;-67
2022/06/22 12:15:51;;;;;;;1.77;0.90;;;22.70;60.80;;;;;;5039621;28;46123;-67
2022/06/22 12:18:32;;;;;;;2.33;0.90;;;22.30;64.00;;;;;;5034573;28;45284;-68
2022/06/22 12:21:22;;;;;;;3.10;1.10;;;21.50;79.10;;;;;;5041343;28;45381;-68
2022/06/22 12:23:59;;;;;;;2.70;1.10;;;21.20;82.80;;;;;;5031934;28;46896;-67
2022/06/22 12:26:37;;;;;;;5.50;1.15;;;21.10;83.10;;;;;;5058690;28;45273;-67
2022/06/22 12:29:28;;;;;;;1.63;0.90;;;21.50;78.90;;;;;;5067458;28;45113;-67
2022/06/22 12:32:02;;;;;;;3.50;1.17;;;21.10;82.60;;;;;;5037103;28;45684;-67
2022/06/22 12:34:34;;;;;;;2.53;1.10;;;21.00;83.50;;;;;;5039416;28;46055;-67
2022/06/22 12:37:07;;;;;;;1.70;1.02;;;22.00;62.70;;;;;;5057459;28;45116;-67
2022/06/22 12:39:39;;;;;;;4.03;1.10;;;23.20;66.10;;;;;;5048109;28;45698;-67
2022/06/22 12:42:21;;;;;;;2.03;0.98;;;23.20;60.30;;;;;;5046345;28;45318;-67
2022/06/22 12:45:17;;;;;;;4.82;1.08;;;23.50;65.50;;;;;;5059251;28;45255;-67
2022/06/22 12:48:12;;;;;;;1.75;1.10;;;22.50;70.20;;;;;;5052642;28;45231;-67
2022/06/22 12:50:57;;;;;;;3.70;0.85;;;22.30;72.40;;;;;;5034101;28;45338;-67
2022/06/22 12:53:33;;;;;;;3.38;1.42;;;22.20;59.90;;;;;;5046349;28;45328;-67
2022/06/22 12:56:06;;;;;;;3.50;1.00;;;23.10;57.30;;;;;;5041598;28;47043;-67
2022/06/22 12:58:40;;;;;;;1.88;0.88;;;23.60;56.80;;;;;;5052979;28;45215;-67
2022/06/22 13:01:07;;;;;;;3.10;0.80;;;22.60;64.90;;;;;;5046541;28;45245;-67
2022/06/22 13:03:38;;;;;;;3.55;1.15;;;22.60;58.30;;;;;;5044622;28;45212;-67
2022/06/22 13:06:06;;;;;;;1.17;0.93;;;23.10;61.80;;;;;;5046629;28;46278;-67
2022/06/22 13:08:34;;;;;;;2.92;0.80;;;22.50;70.50;;;;;;5052823;28;45375;-67
2022/06/22 13:11:06;;;;;;;1.85;1.08;;;22.80;55.80;;;;;;5047890;28;45638;-67
2022/06/22 13:13:54;;;;;;;3.53;0.93;;;23.80;53.90;;;;;;5053707;28;45550;-67
2022/06/22 13:16:27;;;;;;;1.10;0.80;;;23.20;63.30;;;;;;5047865;28;45219;-67
2022/06/22 13:19:02;;;;;;;2.50;1.00;;;22.90;63.70;;;;;;5050843;28;45305;-67
2022/06/22 13:21:37;;;;;;;2.45;0.80;;;22.40;68.80;;;;;;5035169;28;45507;-68
2022/06/22 13:24:15;;;;;;;2.38;0.88;;;22.60;62.50;;;;;;5036495;28;45349;-67
2022/06/22 13:26:52;;;;;;;4.07;1.23;;;22.20;58.30;;;;;;5049788;28;46506;-67
2022/06/22 13:29:29;;;;;;;2.03;1.02;;;22.60;62.20;;;;;;5049612;28;45226;-67
2022/06/22 13:32:00;;;;;;;1.25;0.80;;;24.40;51.00;;;;;;5050196;28;45206;-67
2022/06/22 13:34:33;;;;;;;5.47;1.00;;;24.00;58.10;;;;;;5049646;28;45572;-67
2022/06/22 13:37:11;;;;;;;3.72;1.10;;;24.30;54.80;;;;;;5060138;28;47196;-68
2022/06/22 13:39:50;;;;;;;1.27;0.90;;;22.50;70.00;;;;;;5059794;28;45397;-68
2022/06/22 13:42:35;;;;;;;0.90;0.70;;;21.80;75.50;;;;;;5051723;28;45218;-68
2022/06/22 13:45:23;;;;;;;2.88;0.90;;;21.30;79.40;;;;;;5047495;28;45133;-67
2022/06/22 13:48:15;;;;;;;2.60;1.00;;;21.60;76.90;;;;;;5049552;28;48412;-68
2022/06/22 13:51:21;;;;;;;1.85;0.85;;;21.50;74.50;;;;;;5039690;28;45373;-68
2022/06/22 13:54:33;;;;;;;1.15;0.63;;;21.40;77.00;;;;;;5041448;28;45244;-68
2022/06/22 13:57:11;;;;;;;2.20;1.02;;;21.30;70.10;;;;;;4964069;28;45571;-67
2022/06/22 13:59:44;;;;;;;1.60;0.80;;;21.20;79.00;;;;;;5051163;28;46302;-68